Time;durP1;ratioP1;P1;durP2;ratioP2;P2;SDS_P1;SDS_P2;PMS_P1;PMS_P2;Temp;Humidity;BMP_temperature;BMP_pressure;BME280_temperature;BME280_humidity;BME280_pressure;Samples;Min_cycle;Max_cycle;Signal;HPM_P1;HPM_P2
2022/04/08 00:00:46;;;;;;;8.25;1.80;;;18.70;97.50;;;;;;5132438;27;20043;-72
2022/04/08 00:03:14;;;;;;;6.30;1.50;;;18.70;97.60;;;;;;5113741;27;20031;-72
2022/04/08 00:05:41;;;;;;;11.35;1.77;;;18.70;97.60;;;;;;5132087;27;20071;-72
2022/04/08 00:08:08;;;;;;;7.72;1.73;;;18.80;97.60;;;;;;5113865;27;20375;-72
2022/04/08 00:10:35;;;;;;;10.70;2.00;;;18.80;97.60;;;;;;5132189;27;20031;-72
2022/04/08 00:13:03;;;;;;;10.15;1.45;;;18.80;97.60;;;;;;5132081;27;20042;-72
2022/04/08 00:15:33;;;;;;;8.45;1.42;;;18.80;97.60;;;;;;5132016;27;20061;-72
2022/04/08 00:18:00;;;;;;;9.65;1.77;;;18.80;97.70;;;;;;5131844;27;20110;-72
2022/04/08 00:20:28;;;;;;;11.35;1.60;;;18.80;97.70;;;;;;5131971;27;20035;-72
2022/04/08 00:22:55;;;;;;;12.85;2.03;;;18.90;97.70;;;;;;5131964;27;20023;-72
2022/04/08 00:25:22;;;;;;;6.10;1.40;;;18.90;97.80;;;;;;5113705;27;20042;-72
2022/04/08 00:27:49;;;;;;;7.80;1.67;;;19.00;97.80;;;;;;5131631;27;20035;-72
2022/04/08 00:30:16;;;;;;;9.80;1.52;;;19.00;97.80;;;;;;5131397;27;20050;-72
2022/04/08 00:32:44;;;;;;;10.93;1.63;;;19.10;97.80;;;;;;5130719;27;20471;-72
2022/04/08 00:35:11;;;;;;;7.75;1.65;;;19.10;97.90;;;;;;5096263;27;20027;-72
2022/04/08 00:37:40;;;;;;;9.95;2.20;;;19.20;97.80;;;;;;5130180;27;20534;-72
2022/04/08 00:40:11;;;;;;;13.02;2.00;;;19.20;97.90;;;;;;5112954;27;20126;-72
2022/04/08 00:42:41;;;;;;;11.38;2.08;;;19.30;98.00;;;;;;5112888;27;20368;-72
2022/04/08 00:45:08;;;;;;;12.40;2.08;;;19.30;98.00;;;;;;5131509;28;20034;-72
2022/04/08 00:47:37;;;;;;;20.02;2.28;;;19.30;97.90;;;;;;5113325;28;20031;-72
2022/04/08 00:50:10;;;;;;;15.85;2.75;;;19.30;98.00;;;;;;5131144;28;20031;-72
2022/04/08 00:52:39;;;;;;;13.82;2.60;;;19.40;98.00;;;;;;5130604;27;20027;-72
2022/04/08 00:55:07;;;;;;;18.75;2.45;;;19.40;98.00;;;;;;5112678;28;20585;-72
2022/04/08 00:57:34;;;;;;;13.82;1.90;;;19.50;97.90;;;;;;5130086;28;20388;-72
2022/04/08 01:00:05;;;;;;;11.07;1.90;;;19.50;97.70;;;;;;5113147;28;20400;-72
2022/04/08 01:02:32;;;;;;;13.90;2.10;;;19.50;97.30;;;;;;5113050;28;20027;-72
2022/04/08 01:05:00;;;;;;;7.03;1.33;;;19.60;97.20;;;;;;5113057;28;20038;-72
2022/04/08 01:07:27;;;;;;;7.85;1.58;;;19.60;96.80;;;;;;5133181;27;20027;-72
2022/04/08 01:09:54;;;;;;;11.10;1.50;;;19.70;96.80;;;;;;5116669;27;20035;-72
2022/04/08 01:12:21;;;;;;;8.90;1.58;;;19.70;96.60;;;;;;5135592;27;20095;-72
2022/04/08 01:14:49;;;;;;;9.38;1.80;;;19.70;96.00;;;;;;5117277;27;20460;-71
2022/04/08 01:17:16;;;;;;;6.35;1.40;;;19.70;96.20;;;;;;5116497;27;20031;-71
2022/04/08 01:19:43;;;;;;;14.27;2.08;;;19.70;95.20;;;;;;5134959;27;20524;-72
2022/04/08 01:22:10;;;;;;;9.77;1.60;;;19.70;94.90;;;;;;5134824;27;20042;-72
2022/04/08 01:24:37;;;;;;;8.75;1.50;;;19.70;94.30;;;;;;5116851;27;20086;-71
2022/04/08 01:27:04;;;;;;;9.77;1.60;;;19.70;93.70;;;;;;5116757;27;20031;-71
2022/04/08 01:29:31;;;;;;;8.18;1.90;;;19.70;92.90;;;;;;5133775;27;20023;-72
2022/04/08 01:31:59;;;;;;;8.95;1.65;;;19.80;93.90;;;;;;5135256;27;20046;-72
2022/04/08 01:34:26;;;;;;;5.65;1.33;;;19.90;93.60;;;;;;5134688;27;20072;-72
2022/04/08 01:36:53;;;;;;;6.47;1.45;;;19.90;92.30;;;;;;5134786;27;20397;-72
2022/04/08 01:39:20;;;;;;;6.55;1.67;;;19.90;91.00;;;;;;5135113;27;20055;-72
2022/04/08 01:41:47;;;;;;;12.25;2.15;;;19.90;89.20;;;;;;5134703;27;20416;-72
2022/04/08 01:44:14;;;;;;;9.05;1.58;;;20.00;89.40;;;;;;5116844;27;20035;-72
2022/04/08 01:46:41;;;;;;;17.20;3.75;;;20.20;90.00;;;;;;5134830;27;20133;-72
2022/04/08 01:49:09;;;;;;;6.25;1.55;;;20.20;90.30;;;;;;5134566;27;20024;-72
2022/04/08 01:51:36;;;;;;;7.95;1.60;;;20.20;88.40;;;;;;5134986;27;20023;-72
2022/04/08 01:54:03;;;;;;;4.25;1.05;;;20.20;89.10;;;;;;5135055;27;20035;-72
2022/04/08 01:56:30;;;;;;;9.40;1.50;;;20.20;88.60;;;;;;5134889;27;20023;-72
2022/04/08 01:58:57;;;;;;;8.20;1.77;;;20.30;88.40;;;;;;5134423;27;20058;-72
2022/04/08 02:01:24;;;;;;;8.90;1.30;;;20.30;89.40;;;;;;5134409;27;20101;-72
2022/04/08 02:03:52;;;;;;;7.03;1.77;;;20.30;88.60;;;;;;5135202;27;20027;-72
2022/04/08 02:06:19;;;;;;;4.35;1.08;;;20.40;89.00;;;;;;5116289;27;20031;-72
2022/04/08 02:08:46;;;;;;;7.05;1.63;;;20.40;88.30;;;;;;5133298;27;20031;-72
2022/04/08 02:11:13;;;;;;;4.57;1.35;;;20.50;89.20;;;;;;5115835;27;20058;-72
2022/04/08 02:13:40;;;;;;;6.57;1.45;;;20.50;88.30;;;;;;5133755;27;20035;-72
2022/04/08 02:16:07;;;;;;;11.68;1.50;;;20.60;88.60;;;;;;5134679;27;20066;-72
2022/04/08 02:18:35;;;;;;;5.07;1.50;;;20.60;86.60;;;;;;5134045;27;20339;-72
2022/04/08 02:21:02;;;;;;;5.85;1.73;;;20.60;86.00;;;;;;5133880;27;20036;-72
2022/04/08 02:23:29;;;;;;;6.28;1.30;;;20.60;87.00;;;;;;5134331;27;20039;-72
2022/04/08 02:25:56;;;;;;;9.55;1.88;;;20.70;86.30;;;;;;5115655;27;20037;-72
2022/04/08 02:28:24;;;;;;;11.98;1.77;;;20.70;87.40;;;;;;5115610;27;20116;-72
2022/04/08 02:30:52;;;;;;;9.98;1.80;;;20.70;85.00;;;;;;5115929;27;20138;-73
2022/04/08 02:33:20;;;;;;;7.07;1.40;;;20.70;86.40;;;;;;5133647;27;20385;-73
2022/04/08 02:35:47;;;;;;;4.55;1.38;;;20.70;85.30;;;;;;5132674;27;20400;-73
2022/04/08 02:38:15;;;;;;;10.57;2.03;;;20.80;85.50;;;;;;5133527;27;20042;-72
2022/04/08 02:40:42;;;;;;;12.95;1.75;;;20.70;84.70;;;;;;5132515;27;20439;-73
2022/04/08 02:43:09;;;;;;;9.73;2.05;;;20.80;84.60;;;;;;5133932;27;20054;-73
2022/04/08 02:45:36;;;;;;;8.38;1.65;;;20.80;86.40;;;;;;5133707;27;20047;-72
2022/04/08 02:48:04;;;;;;;8.80;1.65;;;20.80;86.00;;;;;;5133816;27;20054;-73
2022/04/08 02:50:31;;;;;;;10.48;1.60;;;20.80;86.10;;;;;;5133898;27;20027;-72
2022/04/08 02:52:58;;;;;;;11.40;1.80;;;20.80;86.50;;;;;;5133489;27;20027;-73
2022/04/08 02:55:25;;;;;;;9.52;1.73;;;20.60;86.60;;;;;;5133963;27;20035;-72
2022/04/08 02:57:52;;;;;;;4.68;1.27;;;20.50;87.10;;;;;;5115070;27;20027;-73
2022/04/08 03:00:20;;;;;;;3.92;0.93;;;20.40;86.80;;;;;;5133274;27;20071;-73
2022/04/08 03:02:48;;;;;;;5.43;1.40;;;20.40;88.60;;;;;;5133237;27;20496;-73
2022/04/08 03:05:16;;;;;;;5.90;1.27;;;20.30;88.10;;;;;;5115051;27;20024;-72
2022/04/08 03:07:43;;;;;;;10.45;1.70;;;20.30;87.80;;;;;;5133200;27;20043;-72
2022/04/08 03:10:10;;;;;;;7.30;1.25;;;20.30;87.40;;;;;;5115074;27;20087;-73
2022/04/08 03:12:38;;;;;;;7.55;1.80;;;20.40;88.10;;;;;;5115234;27;20043;-73
2022/04/08 03:15:05;;;;;;;9.75;2.45;;;20.40;89.00;;;;;;5133346;27;20107;-73
2022/04/08 03:17:33;;;;;;;11.95;1.90;;;20.40;89.20;;;;;;5131008;27;20553;-73
2022/04/08 03:20:00;;;;;;;9.93;2.28;;;20.40;90.00;;;;;;5131179;27;20058;-73
2022/04/08 03:22:27;;;;;;;10.23;1.73;;;20.40;90.20;;;;;;5114852;27;20034;-73
2022/04/08 03:24:54;;;;;;;18.08;3.38;;;20.40;90.20;;;;;;5133259;27;20080;-73
2022/04/08 03:27:22;;;;;;;14.40;2.63;;;20.50;90.80;;;;;;5133060;27;20026;-72
2022/04/08 03:29:49;;;;;;;13.52;2.58;;;20.40;90.60;;;;;;5130773;27;20030;-72
2022/04/08 03:32:16;;;;;;;16.80;2.92;;;20.50;90.00;;;;;;5131525;27;20074;-72
2022/04/08 03:34:43;;;;;;;9.55;2.58;;;20.60;89.40;;;;;;5131544;27;20035;-72
2022/04/08 03:37:10;;;;;;;10.35;2.25;;;20.60;89.10;;;;;;5133331;27;20024;-72
2022/04/08 03:39:38;;;;;;;13.30;2.15;;;20.60;87.90;;;;;;5114169;27;20029;-73
2022/04/08 03:42:06;;;;;;;8.00;1.73;;;20.60;86.50;;;;;;5132581;27;20038;-72
2022/04/08 03:44:33;;;;;;;8.02;2.40;;;20.70;86.10;;;;;;5114007;27;20038;-72
2022/04/08 03:47:00;;;;;;;6.75;1.67;;;20.70;86.50;;;;;;5131937;27;20049;-72
2022/04/08 03:49:27;;;;;;;9.63;1.63;;;20.70;86.70;;;;;;5127581;27;20027;-72
2022/04/08 03:51:54;;;;;;;7.78;1.60;;;20.60;85.80;;;;;;5122479;27;20036;-72
2022/04/08 03:54:22;;;;;;;6.57;1.73;;;20.60;85.50;;;;;;5111710;28;20050;-71
2022/04/08 03:56:49;;;;;;;6.53;1.60;;;20.70;85.60;;;;;;5093632;28;20051;-71
2022/04/08 03:59:16;;;;;;;7.78;1.88;;;20.70;84.40;;;;;;5092990;28;20393;-71
2022/04/08 04:01:44;;;;;;;5.15;1.10;;;20.80;85.80;;;;;;5130407;27;20493;-71
2022/04/08 04:04:11;;;;;;;5.10;1.20;;;20.80;83.20;;;;;;5131311;27;20424;-71
2022/04/08 04:06:38;;;;;;;9.70;1.95;;;20.80;84.60;;;;;;5132315;27;20413;-71
2022/04/08 04:09:06;;;;;;;7.47;1.25;;;20.70;84.60;;;;;;5118816;27;20185;-71
2022/04/08 04:11:33;;;;;;;5.80;1.20;;;20.80;84.80;;;;;;5127593;27;20188;-71
2022/04/08 04:14:01;;;;;;;3.35;1.20;;;20.70;82.50;;;;;;5113765;27;20023;-72
2022/04/08 04:16:28;;;;;;;7.35;1.60;;;20.70;82.90;;;;;;5132432;27;20477;-71
2022/04/08 04:18:55;;;;;;;6.95;1.25;;;20.70;83.40;;;;;;5131833;27;20036;-71
2022/04/08 04:21:22;;;;;;;10.65;1.80;;;20.80;83.80;;;;;;5114806;27;20503;-73
2022/04/08 04:23:51;;;;;;;6.95;1.83;;;20.80;85.00;;;;;;5093400;28;20558;-73
2022/04/08 04:26:18;;;;;;;8.65;1.88;;;20.80;85.60;;;;;;5092915;28;20032;-72
2022/04/08 04:28:45;;;;;;;13.32;2.42;;;20.80;86.70;;;;;;5111017;28;20042;-72
2022/04/08 04:31:12;;;;;;;7.88;1.50;;;20.80;87.20;;;;;;5125268;27;20047;-72
2022/04/08 04:33:39;;;;;;;9.82;2.00;;;20.80;87.10;;;;;;5131648;27;20085;-72
2022/04/08 04:36:07;;;;;;;10.60;2.17;;;20.80;85.50;;;;;;5131017;27;20038;-72
2022/04/08 04:38:34;;;;;;;11.77;1.98;;;20.80;86.00;;;;;;5127478;27;20101;-72
2022/04/08 04:41:01;;;;;;;10.38;1.88;;;20.80;87.60;;;;;;5076094;28;20043;-72
2022/04/08 04:43:28;;;;;;;11.40;2.03;;;20.90;86.80;;;;;;5076327;28;20462;-74
2022/04/08 04:45:55;;;;;;;9.90;1.85;;;20.80;86.40;;;;;;5109601;28;20402;-74
2022/04/08 04:48:22;;;;;;;11.48;2.33;;;20.80;85.80;;;;;;5118946;28;20037;-70
2022/04/08 04:50:49;;;;;;;16.25;2.88;;;20.80;87.10;;;;;;5119256;28;20096;-73
2022/04/08 04:53:17;;;;;;;15.80;2.10;;;20.60;90.00;;;;;;5077127;28;20034;-73
2022/04/08 04:55:44;;;;;;;9.32;1.63;;;20.30;91.20;;;;;;5110683;28;20032;-71
2022/04/08 04:58:11;;;;;;;7.38;1.50;;;20.00;92.00;;;;;;5110948;28;20034;-72
2022/04/08 05:00:38;;;;;;;7.57;1.90;;;19.80;92.90;;;;;;5119555;28;20077;-72
2022/04/08 05:03:06;;;;;;;6.63;1.33;;;19.50;93.10;;;;;;5131031;28;20031;-72
2022/04/08 05:05:33;;;;;;;6.57;1.58;;;19.40;93.50;;;;;;5131103;28;20035;-70
2022/04/08 05:08:09;;;;;;;8.73;1.95;;;19.30;94.20;;;;;;5113108;28;20035;-71
2022/04/08 05:10:36;;;;;;;9.18;1.50;;;19.30;94.50;;;;;;5099406;28;20036;-74
2022/04/08 05:13:03;;;;;;;9.57;1.70;;;19.20;94.40;;;;;;5131304;28;20114;-76
2022/04/08 05:15:38;;;;;;;7.57;1.60;;;19.20;94.80;;;;;;5131492;28;20027;-74
2022/04/08 05:18:05;;;;;;;6.97;1.60;;;19.30;95.20;;;;;;5113912;28;20024;-75
2022/04/08 05:20:32;;;;;;;9.73;2.05;;;19.30;95.20;;;;;;5089889;28;20046;-76
2022/04/08 05:22:59;;;;;;;5.35;1.60;;;19.30;95.40;;;;;;5098555;28;20104;-75
2022/04/08 05:25:27;;;;;;;10.25;2.05;;;19.30;95.40;;;;;;5111081;28;20031;-73
2022/04/08 05:27:54;;;;;;;5.70;1.60;;;19.30;95.60;;;;;;5095408;28;20113;-77
2022/04/08 05:30:21;;;;;;;8.55;1.80;;;19.30;95.50;;;;;;5110465;27;20030;-73
2022/04/08 05:32:49;;;;;;;8.07;1.77;;;19.40;95.70;;;;;;5109481;28;20501;-75
2022/04/08 05:35:19;;;;;;;9.35;1.60;;;19.30;95.60;;;;;;5112066;28;20043;-74
2022/04/08 05:37:46;;;;;;;;;;;19.30;95.80;;;;;;5144081;27;20481;-73
2022/04/08 05:40:17;;;;;;;10.55;1.90;;;19.30;95.90;;;;;;5132942;27;20353;-75
2022/04/08 05:42:46;;;;;;;9.35;1.63;;;19.40;95.80;;;;;;5096839;28;20104;-74
2022/04/08 05:45:16;;;;;;;9.38;1.83;;;19.40;96.00;;;;;;5089491;28;20027;-74
2022/04/08 05:47:44;;;;;;;10.90;2.78;;;19.40;96.00;;;;;;5099385;28;20040;-75
2022/04/08 05:50:11;;;;;;;9.63;2.22;;;19.50;96.10;;;;;;5093622;28;20489;-75
2022/04/08 05:52:38;;;;;;;12.45;2.30;;;19.40;96.10;;;;;;5090854;27;20180;-73
2022/04/08 05:55:06;;;;;;;12.80;2.63;;;19.40;96.00;;;;;;5125624;27;20053;-74
2022/04/08 05:57:42;;;;;;;12.07;1.98;;;19.40;96.10;;;;;;5133798;27;20034;-74
2022/04/08 06:00:13;;;;;;;11.60;1.90;;;19.40;96.10;;;;;;5127310;27;20112;-75
2022/04/08 06:02:45;;;;;;;13.77;1.98;;;19.40;96.10;;;;;;5123230;27;20030;-74
2022/04/08 06:05:18;;;;;;;12.55;1.65;;;19.30;96.10;;;;;;5125896;27;20030;-75
2022/04/08 06:07:46;;;;;;;11.38;2.00;;;19.30;96.20;;;;;;5106316;28;20126;-74
2022/04/08 06:10:13;;;;;;;12.60;2.00;;;19.30;96.30;;;;;;5103416;27;20038;-72
2022/04/08 06:12:40;;;;;;;12.23;2.25;;;19.30;96.40;;;;;;5119553;27;20042;-76
2022/04/08 06:15:08;;;;;;;9.45;1.25;;;19.30;96.30;;;;;;5097408;28;20032;-75
2022/04/08 06:17:38;;;;;;;10.85;1.77;;;19.10;96.00;;;;;;5113980;27;20116;-75
2022/04/08 06:20:07;;;;;;;6.95;1.40;;;19.00;95.70;;;;;;5091450;27;20080;-73
2022/04/08 06:22:35;;;;;;;10.50;1.70;;;19.00;95.80;;;;;;5082371;27;20027;-73
2022/04/08 09:12:14;;;;;;;13.82;2.55;;;19.10;94.60;;;;;;5115201;27;20105;-74
2022/04/08 09:14:51;;;;;;;16.33;2.72;;;19.20;94.60;;;;;;5134204;27;20431;-75
2022/04/08 09:17:19;;;;;;;15.00;2.95;;;19.20;94.70;;;;;;5083619;28;20031;-72
2022/04/08 09:19:50;;;;;;;16.90;3.40;;;19.20;94.90;;;;;;5111537;28;20092;-73
2022/04/08 09:22:17;;;;;;;22.65;4.05;;;19.30;95.10;;;;;;5113094;28;20023;-74
2022/04/08 09:24:45;;;;;;;19.50;2.95;;;19.30;95.00;;;;;;5110444;28;20042;-74
2022/04/08 09:27:12;;;;;;;19.65;2.78;;;19.30;95.00;;;;;;5111869;28;20402;-75
2022/04/08 09:29:45;;;;;;;17.73;2.75;;;19.30;95.20;;;;;;5092121;28;20035;-78
2022/04/08 09:32:13;;;;;;;20.27;3.03;;;19.30;95.30;;;;;;5114837;28;20067;-79
2022/04/08 09:34:42;;;;;;;18.73;3.15;;;19.30;95.30;;;;;;5132153;27;20026;-79
2022/04/08 09:37:15;;;;;;;18.05;2.75;;;19.20;94.70;;;;;;5134086;27;20066;-78
2022/04/08 09:40:03;;;;;;;14.23;3.05;;;19.00;94.10;;;;;;5122205;27;20123;-74
2022/04/08 09:42:45;;;;;;;16.15;2.70;;;19.00;94.30;;;;;;5113112;27;20031;-76
2022/04/08 09:45:12;;;;;;;13.65;2.88;;;18.90;94.00;;;;;;5126580;27;20106;-74
2022/04/08 09:47:39;;;;;;;15.88;2.85;;;18.90;94.20;;;;;;5133382;27;20044;-75
2022/04/08 09:50:10;;;;;;;13.65;2.90;;;18.90;94.30;;;;;;5110453;27;20084;-78
2022/04/08 09:52:41;;;;;;;15.32;2.50;;;18.90;94.60;;;;;;5114826;27;20370;-77
2022/04/08 09:55:07;;;;;;;;;;;18.90;94.40;;;;;;5102140;28;20093;-76
2022/04/08 09:57:38;;;;;;;14.90;2.53;;;19.00;94.60;;;;;;5130741;27;19915;-77
2022/04/08 10:00:06;;;;;;;15.82;2.38;;;19.00;94.70;;;;;;5093158;27;20515;-75
2022/04/08 10:02:46;;;;;;;15.73;2.92;;;19.10;94.70;;;;;;5096758;27;20030;-78
2022/04/08 10:05:13;;;;;;;19.60;3.03;;;19.10;94.50;;;;;;5096690;27;20396;-77
2022/04/08 10:07:41;;;;;;;15.93;2.75;;;19.20;94.20;;;;;;5081330;27;20032;-79
2022/04/08 10:27:21;;;;;;;16.98;2.70;;;19.00;92.10;;;;;;5119584;27;20120;-76
2022/04/08 10:29:55;;;;;;;14.50;2.65;;;19.10;92.70;;;;;;5108749;28;20109;-76
2022/04/08 10:32:22;;;;;;;16.73;2.42;;;19.20;92.00;;;;;;5093229;28;20074;-74
2022/04/08 10:34:49;;;;;;;10.95;2.22;;;19.30;92.60;;;;;;5112199;28;20120;-73
2022/04/08 10:37:25;;;;;;;17.20;2.42;;;19.30;92.50;;;;;;5112210;28;20054;-76
2022/04/08 10:40:01;;;;;;;16.55;2.70;;;19.30;92.60;;;;;;5093597;28;20043;-76
2022/04/08 10:42:31;;;;;;;19.10;2.83;;;19.30;91.70;;;;;;5072563;28;20039;-76
2022/04/08 10:44:58;;;;;;;18.77;3.03;;;19.40;92.30;;;;;;5106507;28;20036;-76
2022/04/08 10:47:27;;;;;;;19.38;2.90;;;19.50;92.30;;;;;;5101213;28;20336;-77
2022/04/08 10:50:01;;;;;;;14.35;3.05;;;19.50;92.60;;;;;;5073814;28;21475;-74
2022/04/08 10:52:29;;;;;;;15.98;2.42;;;19.50;91.90;;;;;;5108523;28;20290;-78
2022/04/08 10:55:10;;;;;;;17.67;2.95;;;19.50;91.80;;;;;;5079827;28;20100;-75
2022/04/08 10:57:45;;;;;;;14.77;2.60;;;19.50;92.10;;;;;;5109887;28;20117;-77
2022/04/08 11:00:18;;;;;;;17.98;5.38;;;19.50;92.40;;;;;;5092127;28;20036;-78
2022/04/08 11:02:46;;;;;;;18.27;5.25;;;19.50;92.60;;;;;;5091127;28;20042;-78
2022/04/08 11:05:14;;;;;;;15.32;5.22;;;19.50;92.30;;;;;;5089632;28;20142;-77
2022/04/08 11:07:41;;;;;;;15.02;4.30;;;19.50;92.30;;;;;;5112449;28;20366;-77
2022/04/08 11:10:19;;;;;;;15.07;2.88;;;19.50;91.90;;;;;;5094152;28;20034;-79
2022/04/08 11:12:50;;;;;;;17.30;2.65;;;19.50;90.70;;;;;;5091951;28;20043;-79
2022/04/08 11:15:19;;;;;;;12.35;2.33;;;19.60;90.00;;;;;;5084486;28;20055;-79
2022/04/08 11:17:49;;;;;;;16.25;2.85;;;19.70;90.50;;;;;;5102790;28;20039;-78
2022/04/08 11:20:18;;;;;;;10.52;2.20;;;19.60;90.30;;;;;;5111904;28;20043;-80
2022/04/08 11:22:47;;;;;;;13.10;2.50;;;19.70;90.80;;;;;;5111302;28;20035;-77
2022/04/08 11:25:30;;;;;;;12.90;2.67;;;19.70;91.10;;;;;;5094671;28;20032;-80
2022/04/08 11:28:09;;;;;;;14.32;2.28;;;19.70;91.60;;;;;;5112274;28;20040;-78
2022/04/08 11:30:39;;;;;;;9.93;2.10;;;19.70;91.90;;;;;;5080114;28;20032;-79
2022/04/08 11:33:16;;;;;;;20.13;3.28;;;19.70;92.10;;;;;;5093874;28;20023;-76
2022/04/08 11:35:44;;;;;;;12.48;2.70;;;19.70;91.70;;;;;;5115879;27;20393;-79
2022/04/08 11:38:20;;;;;;;10.88;2.22;;;19.60;91.20;;;;;;5106629;27;20396;-79
2022/04/08 11:40:47;;;;;;;14.93;2.67;;;19.60;89.90;;;;;;5100469;27;20493;-80
2022/04/08 11:43:15;;;;;;;8.40;2.28;;;19.70;89.40;;;;;;5102862;27;20110;-77
2022/04/08 11:45:46;;;;;;;13.40;3.13;;;19.70;89.30;;;;;;5128213;27;20027;-79
2022/04/08 11:48:19;;;;;;;14.60;2.55;;;19.70;89.60;;;;;;5086580;27;20027;-83
2022/04/08 11:50:49;;;;;;;18.05;2.60;;;19.70;90.00;;;;;;5089765;27;20393;-78
2022/04/08 11:53:18;;;;;;;11.07;2.15;;;19.70;90.00;;;;;;5121451;27;20023;-78
2022/04/08 11:56:04;;;;;;;11.18;2.63;;;19.70;89.90;;;;;;5111435;27;20085;-77
2022/04/08 11:58:31;;;;;;;18.63;2.83;;;19.70;89.20;;;;;;5121343;27;20114;-77
2022/04/08 12:01:00;;;;;;;13.85;2.28;;;19.70;89.80;;;;;;5111761;27;20112;-78
2022/04/08 12:03:32;;;;;;;16.50;2.10;;;19.70;89.30;;;;;;5114306;27;20078;-81
2022/04/08 12:06:01;;;;;;;12.40;2.67;;;19.70;89.70;;;;;;5105198;27;20032;-81
2022/04/08 12:08:28;;;;;;;17.25;3.22;;;19.70;90.30;;;;;;5113658;27;20161;-79
2022/04/08 12:10:57;;;;;;;8.15;2.25;;;19.70;90.60;;;;;;5118990;27;20038;-81
2022/04/08 12:13:25;;;;;;;13.82;2.55;;;19.80;91.00;;;;;;5111325;28;20151;-80
2022/04/08 12:15:59;;;;;;;16.50;2.67;;;19.70;90.40;;;;;;5098823;27;20035;-79
2022/04/08 12:18:28;;;;;;;9.07;2.55;;;19.70;91.00;;;;;;5096175;27;20478;-81
2022/04/08 12:20:57;;;;;;;16.20;2.55;;;19.70;90.00;;;;;;5093192;28;20069;-85
2022/04/08 12:23:26;;;;;;;12.50;2.43;;;19.70;90.50;;;;;;5141380;27;20024;-86
2022/04/08 12:25:54;;;;;;;16.83;2.65;;;19.70;89.90;;;;;;5087194;28;20036;-87
2022/04/08 12:28:25;;;;;;;11.32;2.47;;;19.70;90.40;;;;;;5138191;27;20046;-84
2022/04/08 12:30:52;;;;;;;17.48;2.50;;;19.70;90.40;;;;;;5128616;27;20027;-85
2022/04/08 12:33:20;;;;;;;14.57;2.85;;;19.70;90.30;;;;;;5130017;27;20282;-84
2022/04/08 12:35:48;;;;;;;15.02;3.28;;;19.60;89.60;;;;;;5096876;27;20331;-84
2022/04/08 12:38:22;;;;;;;13.05;2.30;;;19.70;89.60;;;;;;5112908;27;20076;-87
2022/04/08 12:40:49;;;;;;;15.02;2.55;;;19.70;89.80;;;;;;5078186;28;20743;-83
2022/04/08 12:43:16;;;;;;;16.25;2.80;;;19.70;89.00;;;;;;5098225;28;20381;-83
2022/04/08 12:45:43;;;;;;;12.95;2.28;;;19.70;88.40;;;;;;5110988;28;20046;-79
2022/04/08 12:48:11;;;;;;;12.20;2.38;;;19.70;88.50;;;;;;5095312;28;20023;-83
2022/04/08 12:50:38;;;;;;;13.88;2.60;;;19.70;89.10;;;;;;5119798;27;20054;-83
2022/04/08 12:53:05;;;;;;;10.07;2.33;;;19.70;89.20;;;;;;5116952;27;20031;-82
2022/04/08 12:55:33;;;;;;;14.68;2.58;;;19.70;89.60;;;;;;5106944;28;20027;-82
2022/04/08 12:58:00;;;;;;;9.73;2.38;;;19.70;89.20;;;;;;5122072;28;20093;-81
2022/04/08 13:00:27;;;;;;;16.60;2.90;;;19.70;89.30;;;;;;5126051;28;20072;-81
2022/04/08 13:02:54;;;;;;;16.02;2.50;;;19.70;89.20;;;;;;5120846;27;20477;-83
2022/04/08 13:05:22;;;;;;;15.30;2.60;;;19.70;88.80;;;;;;5100524;28;20085;-83
2022/04/08 13:07:49;;;;;;;11.02;2.42;;;19.70;87.90;;;;;;5128962;27;20444;-82
2022/04/08 13:10:16;;;;;;;12.40;2.50;;;19.70;88.20;;;;;;5098923;28;20028;-81
2022/04/08 13:12:43;;;;;;;9.82;1.95;;;19.70;88.00;;;;;;5079838;28;20070;-81
2022/04/08 13:15:11;;;;;;;14.25;2.40;;;19.70;88.40;;;;;;5108719;27;20038;-81
2022/04/08 13:17:38;;;;;;;14.95;2.33;;;19.70;88.00;;;;;;5101196;27;20129;-81
2022/04/08 13:20:16;;;;;;;14.88;2.17;;;19.70;87.60;;;;;;5085720;28;20043;-81
2022/04/08 13:22:43;;;;;;;10.85;2.30;;;19.70;88.10;;;;;;5098149;28;20427;-81
2022/04/08 13:25:10;;;;;;;13.25;2.10;;;19.70;88.40;;;;;;5114768;28;20504;-82
2022/04/08 13:27:38;;;;;;;12.57;2.20;;;19.70;87.70;;;;;;5068214;27;20034;-82
2022/04/08 13:30:05;;;;;;;11.57;2.20;;;19.70;88.00;;;;;;5096153;27;20035;-81
2022/04/08 13:32:36;;;;;;;13.57;2.33;;;19.70;87.80;;;;;;5103852;27;20028;-81
2022/04/08 13:35:05;;;;;;;14.57;2.72;;;19.70;88.40;;;;;;5114169;28;20092;-82
2022/04/08 13:37:32;;;;;;;17.50;2.55;;;19.70;87.90;;;;;;5109826;27;20031;-82
2022/04/08 13:39:59;;;;;;;17.00;2.08;;;19.70;87.70;;;;;;5128127;27;20067;-82
2022/04/08 13:42:27;;;;;;;13.45;2.58;;;19.70;87.90;;;;;;5114191;28;20036;-82
2022/04/08 13:44:54;;;;;;;11.25;2.10;;;19.70;88.30;;;;;;5114588;28;20031;-81
2022/04/08 13:47:21;;;;;;;16.63;2.60;;;19.70;88.30;;;;;;5113929;28;20028;-81
2022/04/08 13:49:49;;;;;;;8.07;2.13;;;19.70;87.80;;;;;;5117948;27;20023;-81
2022/04/08 13:52:16;;;;;;;9.35;2.28;;;19.70;87.80;;;;;;5128150;27;20023;-83
2022/04/08 13:54:43;;;;;;;14.20;2.17;;;19.70;87.70;;;;;;5116278;27;20035;-83
2022/04/08 13:57:10;;;;;;;12.85;1.95;;;19.70;87.80;;;;;;5084173;28;20114;-82
2022/04/08 13:59:37;;;;;;;11.75;2.35;;;19.70;87.90;;;;;;5095551;28;20038;-83
2022/04/08 14:02:05;;;;;;;13.35;2.10;;;19.60;86.90;;;;;;5096826;27;20042;-82
2022/04/08 14:04:32;;;;;;;11.43;2.20;;;19.70;85.30;;;;;;5121099;27;20038;-81
2022/04/08 14:07:01;;;;;;;10.30;2.00;;;19.70;85.40;;;;;;5122682;27;20031;-82
2022/04/08 14:09:28;;;;;;;7.80;1.93;;;19.70;85.70;;;;;;5120422;27;20033;-82
2022/04/08 14:11:56;;;;;;;9.50;2.10;;;19.70;86.30;;;;;;5126954;27;20046;-82
2022/04/08 14:14:23;;;;;;;9.52;1.77;;;19.70;86.10;;;;;;5106053;27;20059;-82
2022/04/08 14:16:50;;;;;;;10.27;2.03;;;19.70;86.10;;;;;;5132282;27;20031;-82
2022/04/08 14:19:17;;;;;;;14.93;2.50;;;19.70;86.50;;;;;;5095769;27;20019;-82
2022/04/08 14:21:44;;;;;;;11.23;2.28;;;19.70;86.90;;;;;;5095344;28;20054;-82
2022/04/08 14:24:11;;;;;;;13.00;2.45;;;19.60;87.10;;;;;;5104523;27;20027;-82
2022/04/08 14:26:41;;;;;;;15.57;2.35;;;19.60;86.70;;;;;;5124073;27;20070;-82
2022/04/08 14:29:08;;;;;;;8.98;2.00;;;19.70;86.50;;;;;;5113866;27;20075;-82
2022/04/08 14:31:36;;;;;;;12.60;2.25;;;19.70;86.80;;;;;;5130791;27;20051;-82
2022/04/08 14:34:03;;;;;;;11.98;2.10;;;19.70;87.50;;;;;;5113064;27;20040;-82
2022/04/08 14:36:30;;;;;;;15.23;2.55;;;19.70;87.10;;;;;;5113243;27;20032;-82
2022/04/08 14:38:57;;;;;;;12.40;2.60;;;19.70;87.20;;;;;;5097571;28;20408;-82
2022/04/08 14:41:25;;;;;;;9.52;2.00;;;19.70;86.80;;;;;;5094340;28;20114;-82
2022/04/08 14:43:52;;;;;;;11.02;1.98;;;19.70;87.10;;;;;;5119826;27;20035;-82
2022/04/08 14:46:19;;;;;;;9.63;2.08;;;19.70;87.30;;;;;;5104579;28;20469;-82
2022/04/08 14:48:46;;;;;;;14.23;1.95;;;19.70;87.00;;;;;;5113330;27;20036;-82
2022/04/08 14:51:14;;;;;;;11.63;2.10;;;19.60;86.30;;;;;;5125256;27;20082;-82
2022/04/08 14:53:42;;;;;;;10.07;2.10;;;19.70;85.60;;;;;;5094843;28;20028;-82
2022/04/08 14:56:10;;;;;;;12.48;1.98;;;19.70;85.90;;;;;;5122325;27;20057;-82
2022/04/08 14:58:37;;;;;;;13.65;1.85;;;19.70;86.30;;;;;;5115164;27;20449;-83
2022/04/08 15:01:04;;;;;;;11.93;2.28;;;19.70;85.10;;;;;;5116955;27;20264;-83
2022/04/08 15:03:31;;;;;;;9.75;1.83;;;19.80;85.50;;;;;;5114958;27;20345;-84
2022/04/08 15:05:58;;;;;;;8.27;2.00;;;19.80;85.90;;;;;;5097824;27;20442;-83
2022/04/08 15:08:26;;;;;;;10.82;2.35;;;19.80;84.80;;;;;;5122914;27;20492;-83
2022/04/08 15:10:53;;;;;;;10.60;2.10;;;19.80;85.20;;;;;;5095247;27;20047;-83
2022/04/08 15:13:20;;;;;;;10.68;1.98;;;19.80;85.30;;;;;;5117907;27;20374;-83
2022/04/08 15:15:47;;;;;;;13.27;2.08;;;19.80;85.70;;;;;;5121108;27;20027;-83
2022/04/08 15:18:14;;;;;;;11.32;2.03;;;19.80;85.90;;;;;;5093464;28;20032;-83
2022/04/08 15:20:41;;;;;;;13.55;2.35;;;19.80;86.00;;;;;;5093727;28;20111;-83
2022/04/08 15:23:08;;;;;;;11.73;2.25;;;19.80;86.30;;;;;;5096466;27;20077;-83
2022/04/08 15:25:36;;;;;;;12.65;2.30;;;19.80;86.20;;;;;;5123808;27;20047;-83
2022/04/08 15:28:03;;;;;;;10.05;1.85;;;19.80;86.10;;;;;;5121504;27;20147;-83
2022/04/08 15:30:30;;;;;;;11.38;2.15;;;19.80;85.50;;;;;;5112298;28;20385;-83
2022/04/08 15:32:57;;;;;;;13.45;2.08;;;19.80;85.70;;;;;;5111988;28;20425;-83
2022/04/08 15:35:24;;;;;;;10.80;2.42;;;19.80;85.70;;;;;;5112164;28;20047;-83
2022/04/08 15:37:53;;;;;;;14.00;2.05;;;19.80;85.70;;;;;;5078758;28;20019;-84
2022/04/08 15:40:20;;;;;;;12.88;2.10;;;19.90;85.70;;;;;;5111553;27;20054;-83
2022/04/08 15:42:47;;;;;;;12.68;2.13;;;19.80;85.50;;;;;;5094023;28;20036;-83
2022/04/08 15:45:14;;;;;;;9.13;1.73;;;19.80;85.80;;;;;;5111165;28;20431;-83
2022/04/08 15:47:42;;;;;;;7.57;1.60;;;19.80;85.80;;;;;;5095125;27;20121;-83
2022/04/08 15:50:09;;;;;;;12.25;2.00;;;19.80;85.80;;;;;;5108127;28;20103;-83